createdAt,value
2019-03-05T00:00:59.226Z,90.10
2019-03-05T00:03:27.460Z,89.70
2019-03-05T00:05:55.689Z,89.20
2019-03-05T00:08:23.938Z,89.40
2019-03-05T00:10:52.174Z,88.70
2019-03-05T00:13:20.394Z,88.00
2019-03-05T00:15:49.907Z,88.50
2019-03-05T00:18:18.224Z,88.10
2019-03-05T00:20:46.444Z,87.90
2019-03-05T00:23:16.568Z,88.20
2019-03-05T00:25:44.790Z,87.80
2019-03-05T00:28:25.181Z,87.80
2019-03-05T00:30:59.340Z,87.90
2019-03-05T00:33:50.301Z,87.50
2019-03-05T00:36:27.426Z,87.00
2019-03-05T00:39:21.783Z,87.70
2019-03-05T00:42:02.314Z,87.10
2019-03-05T00:44:51.744Z,87.50
2019-03-05T00:47:31.938Z,87.30
2019-03-05T00:50:32.412Z,87.00
2019-03-05T00:53:06.604Z,87.30
2019-03-05T00:55:56.164Z,87.50
2019-03-05T00:58:30.612Z,87.30
2019-03-05T01:01:07.792Z,87.00
2019-03-05T01:03:44.875Z,87.70
2019-03-05T01:06:26.269Z,87.50
2019-03-05T01:08:56.239Z,87.30
2019-03-05T01:11:24.724Z,87.70
2019-03-05T01:13:52.998Z,87.20
2019-03-05T01:16:22.887Z,87.40
2019-03-05T01:18:51.137Z,87.40
2019-03-05T01:21:19.358Z,87.30
2019-03-05T01:23:47.593Z,87.60
2019-03-05T01:26:15.813Z,87.30
2019-03-05T01:28:44.049Z,87.70
2019-03-05T01:31:19.528Z,87.90
2019-03-05T01:33:52.133Z,87.80
2019-03-05T01:36:27.844Z,88.50
2019-03-05T01:39:14.044Z,88.80
2019-03-05T01:41:42.326Z,88.90
2019-03-05T01:44:10.564Z,89.10
2019-03-05T01:46:38.798Z,89.40
2019-03-05T01:49:07.029Z,89.40
2019-03-05T01:51:35.262Z,89.70
2019-03-05T01:54:03.508Z,89.30
2019-03-05T01:56:31.813Z,89.10
2019-03-05T01:59:00.047Z,89.10
2019-03-05T02:01:28.321Z,89.80
2019-03-05T02:03:56.542Z,89.10
2019-03-05T02:06:24.777Z,90.00
2019-03-05T02:08:53.029Z,89.70
2019-03-05T02:11:21.242Z,89.70
2019-03-05T02:13:49.487Z,89.80
2019-03-05T02:16:17.695Z,90.00
2019-03-05T02:18:45.936Z,90.00
2019-03-05T02:21:14.181Z,89.90
2019-03-05T02:23:54.733Z,90.10
2019-03-05T02:26:56.316Z,90.00
2019-03-05T02:29:27.813Z,89.90
2019-03-05T02:32:18.970Z,90.00
2019-03-05T02:34:59.278Z,89.70
2019-03-05T02:37:51.906Z,90.00
2019-03-05T02:40:34.792Z,89.20
2019-03-05T02:43:08.982Z,89.10
2019-03-05T02:45:57.974Z,89.80
2019-03-05T02:48:58.046Z,89.70
2019-03-05T02:51:32.343Z,90.00
2019-03-05T02:54:18.633Z,89.90
2019-03-05T02:57:01.834Z,90.00
2019-03-05T02:59:30.058Z,90.00
2019-03-05T03:01:59.926Z,90.10
2019-03-05T03:04:42.081Z,90.10
2019-03-05T03:07:10.328Z,90.20
2019-03-05T03:09:41.809Z,90.10
2019-03-05T03:12:10.049Z,90.00
2019-03-05T03:14:38.307Z,90.20
2019-03-05T03:17:06.524Z,90.00
2019-03-05T03:19:34.756Z,90.10
2019-03-05T03:22:02.995Z,89.90
2019-03-05T03:24:31.299Z,90.00
2019-03-05T03:26:59.511Z,89.50
2019-03-05T03:29:27.758Z,89.40
2019-03-05T03:31:55.991Z,89.40
2019-03-05T03:34:24.284Z,89.50
2019-03-05T03:36:52.499Z,89.70
2019-03-05T03:39:20.755Z,89.70
2019-03-05T03:41:48.986Z,89.50
2019-03-05T03:44:17.212Z,90.10
2019-03-05T03:46:45.441Z,90.20
2019-03-05T03:49:13.678Z,90.00
2019-03-05T03:51:41.909Z,90.20
2019-03-05T03:54:10.156Z,90.40
2019-03-05T03:56:38.367Z,90.20
2019-03-05T03:59:06.594Z,90.20
2019-03-05T04:01:34.842Z,90.20
2019-03-05T04:04:03.067Z,90.20
2019-03-05T04:06:31.306Z,90.40
2019-03-05T04:08:59.525Z,90.20
2019-03-05T04:11:27.756Z,90.10
2019-03-05T04:13:59.410Z,90.20
2019-03-05T04:16:25.946Z,90.20
2019-03-05T04:18:54.184Z,90.30
2019-03-05T04:21:22.412Z,90.30
2019-03-05T04:23:50.662Z,90.50
2019-03-05T04:26:18.884Z,90.50
2019-03-05T04:28:47.130Z,90.40
2019-03-05T04:31:15.358Z,90.40
2019-03-05T04:33:43.601Z,90.50
2019-03-05T04:36:11.824Z,90.40
2019-03-05T04:38:40.061Z,90.50
2019-03-05T04:41:08.298Z,90.60
2019-03-05T04:43:36.511Z,90.80
2019-03-05T04:46:06.398Z,90.70
2019-03-05T04:48:34.613Z,90.80
2019-03-05T04:51:07.134Z,90.90
2019-03-05T04:53:35.368Z,90.80
2019-03-05T04:56:03.607Z,90.80
2019-03-05T04:58:31.842Z,90.70
2019-03-05T05:01:00.060Z,91.00
2019-03-05T05:03:28.310Z,90.80
2019-03-05T05:05:56.532Z,90.90
2019-03-05T05:08:24.757Z,90.70
2019-03-05T05:10:52.996Z,90.80
2019-03-05T05:13:21.221Z,90.70
2019-03-05T05:15:49.465Z,90.70
2019-03-05T05:18:17.704Z,90.70
2019-03-05T05:20:45.919Z,90.90
2019-03-05T05:23:14.197Z,90.80
2019-03-05T05:25:42.414Z,90.60
2019-03-05T05:28:10.625Z,90.90
2019-03-05T05:30:40.619Z,90.80
2019-03-05T05:33:08.852Z,91.10
2019-03-05T05:35:37.096Z,90.90
2019-03-05T05:38:05.344Z,90.80
2019-03-05T05:40:37.948Z,90.80
2019-03-05T05:43:09.087Z,90.70
2019-03-05T05:45:47.891Z,91.00
2019-03-05T05:48:16.160Z,91.00
2019-03-05T05:50:44.379Z,90.90
2019-03-05T05:53:12.582Z,91.00
2019-03-05T05:55:40.815Z,91.00
2019-03-05T05:58:09.052Z,90.80
2019-03-05T06:00:38.921Z,91.00
2019-03-05T06:03:07.156Z,90.80
2019-03-05T06:05:35.393Z,90.80
2019-03-05T06:08:03.625Z,90.60
2019-03-05T06:10:31.871Z,90.50
2019-03-05T06:13:00.076Z,90.50
2019-03-05T06:15:28.291Z,90.50
2019-03-05T06:17:56.523Z,90.60
2019-03-05T06:20:24.732Z,90.30
2019-03-05T06:22:52.963Z,90.30
2019-03-05T06:25:21.188Z,90.30
2019-03-05T06:27:49.406Z,90.00
2019-03-05T06:30:24.894Z,90.10
2019-03-05T06:32:53.147Z,90.00
2019-03-05T06:35:21.354Z,89.50
2019-03-05T06:37:49.705Z,89.30
2019-03-05T06:40:22.864Z,89.40
2019-03-05T06:42:51.101Z,89.10
2019-03-05T06:45:19.905Z,88.70
2019-03-05T06:47:48.132Z,89.00
2019-03-05T06:50:17.725Z,89.50
2019-03-05T06:52:47.438Z,89.20
2019-03-05T06:55:15.821Z,88.30
2019-03-05T06:57:44.067Z,88.80
2019-03-05T07:00:19.104Z,88.90
2019-03-05T07:02:47.358Z,89.00
2019-03-05T07:05:52.159Z,88.30
2019-03-05T07:08:20.393Z,89.30
2019-03-05T07:11:07.137Z,88.50
2019-03-05T07:13:35.374Z,88.20
2019-03-05T07:16:12.845Z,88.30
2019-03-05T07:18:43.635Z,87.40
2019-03-05T07:21:45.664Z,86.90
2019-03-05T07:24:40.094Z,87.20
2019-03-05T07:27:08.747Z,87.20
2019-03-05T07:29:37.001Z,86.50
2019-03-05T07:32:05.239Z,86.10
2019-03-05T07:34:35.114Z,85.90
2019-03-05T07:37:03.523Z,85.30
2019-03-05T07:39:31.732Z,86.00
2019-03-05T07:41:59.990Z,85.20
2019-03-05T07:44:28.223Z,83.80
2019-03-05T07:46:56.452Z,83.60
2019-03-05T07:49:24.693Z,82.60
2019-03-05T07:51:52.919Z,81.80
2019-03-05T07:54:21.131Z,81.70
2019-03-05T07:56:49.378Z,81.90
2019-03-05T07:59:17.669Z,80.70
2019-03-05T08:01:45.934Z,81.30
2019-03-05T08:04:14.139Z,81.40
2019-03-05T08:06:42.386Z,79.60
2019-03-05T08:09:32.479Z,79.60
2019-03-05T08:12:21.648Z,80.20
2019-03-05T08:15:10.784Z,78.80
2019-03-05T08:17:39.033Z,78.10
2019-03-05T08:20:10.318Z,76.70
2019-03-05T08:22:38.550Z,76.50
2019-03-05T08:25:10.026Z,77.10
2019-03-05T08:27:38.272Z,75.00
2019-03-05T08:30:14.175Z,74.30
2019-03-05T08:32:39.708Z,73.80
2019-03-05T08:35:09.659Z,73.20
2019-03-05T08:37:37.923Z,73.60
2019-03-05T08:40:11.543Z,73.60
2019-03-05T08:42:39.776Z,72.10
2019-03-05T08:45:11.261Z,71.70
2019-03-05T08:47:39.515Z,72.90
2019-03-05T08:50:10.856Z,72.40
2019-03-05T08:52:39.075Z,72.80
2019-03-05T08:55:11.669Z,71.00
2019-03-05T08:57:39.984Z,71.20
2019-03-05T09:00:27.623Z,71.30
2019-03-05T09:02:55.865Z,71.50
2019-03-05T09:05:24.112Z,71.30
2019-03-05T09:07:52.351Z,70.80
2019-03-05T09:10:25.491Z,72.00
2019-03-05T09:12:53.806Z,71.40
2019-03-05T09:15:22.044Z,70.50
2019-03-05T09:17:50.295Z,69.30
2019-03-05T09:20:19.370Z,69.80
2019-03-05T09:22:47.612Z,69.70
2019-03-05T09:25:16.975Z,68.10
2019-03-05T09:27:45.222Z,67.10
2019-03-05T09:30:20.852Z,65.70
2019-03-05T09:32:49.227Z,64.30
2019-03-05T09:35:17.543Z,62.40
2019-03-05T09:37:46.216Z,60.80
2019-03-05T09:40:22.860Z,59.50
2019-03-05T09:42:51.531Z,57.50
2019-03-05T09:45:20.602Z,59.50
2019-03-05T09:47:48.848Z,57.50
2019-03-05T09:50:18.338Z,58.50
2019-03-05T09:52:54.776Z,58.30
2019-03-05T09:55:19.733Z,59.60
2019-03-05T09:57:49.604Z,57.80
2019-03-05T10:00:24.377Z,58.70
2019-03-05T10:02:52.709Z,56.60
2019-03-05T10:05:21.281Z,55.90
2019-03-05T10:07:49.672Z,55.30
2019-03-05T10:10:27.181Z,55.80
2019-03-05T10:12:59.065Z,57.30
2019-03-05T10:15:26.690Z,56.50
2019-03-05T10:17:54.956Z,56.90
2019-03-05T10:20:28.209Z,56.90
2019-03-05T10:22:57.980Z,57.60
2019-03-05T10:25:27.209Z,54.60
2019-03-05T10:27:56.263Z,55.10
2019-03-05T10:30:27.009Z,53.00
2019-03-05T10:32:56.561Z,52.30
2019-03-05T10:35:25.205Z,52.10
2019-03-05T10:37:54.670Z,50.40
2019-03-05T10:40:25.868Z,50.80
2019-03-05T10:42:54.099Z,49.20
2019-03-05T10:45:22.338Z,48.20
2019-03-05T10:47:52.456Z,49.30
2019-03-05T10:50:23.241Z,47.30
2019-03-05T10:52:51.471Z,49.70
2019-03-05T10:55:26.265Z,48.80
2019-03-05T10:57:49.684Z,48.20
2019-03-05T11:00:30.395Z,47.80
2019-03-05T11:02:58.765Z,48.30
2019-03-05T11:05:27.937Z,48.00
2019-03-05T11:07:56.179Z,49.40
2019-03-05T11:10:24.418Z,50.50
2019-03-05T11:12:52.663Z,52.70
2019-03-05T11:15:25.572Z,52.30
2019-03-05T11:17:53.809Z,52.30
2019-03-05T11:20:22.057Z,51.40
2019-03-05T11:22:51.040Z,52.00
2019-03-05T11:25:20.794Z,51.10
2019-03-05T11:27:49.031Z,51.30
2019-03-05T11:30:20.150Z,50.60
2019-03-05T11:32:48.414Z,51.70
2019-03-05T11:35:18.883Z,52.70
2019-03-05T11:37:47.204Z,52.10
2019-03-05T11:40:21.111Z,51.10
2019-03-05T11:42:47.396Z,52.60
2019-03-05T11:45:27.551Z,53.70
2019-03-05T11:47:55.849Z,53.60
2019-03-05T11:50:24.724Z,52.50
2019-03-05T11:52:53.416Z,54.00
2019-03-05T11:55:26.751Z,54.50
2019-03-05T11:57:54.964Z,54.70
2019-03-05T12:00:29.113Z,56.40
2019-03-05T12:02:57.379Z,57.40
2019-03-05T12:05:25.608Z,57.00
2019-03-05T12:07:53.855Z,57.10
2019-03-05T12:10:23.540Z,57.40
2019-03-05T12:12:51.783Z,56.50
2019-03-05T12:15:22.005Z,56.70
2019-03-05T12:17:50.261Z,57.00
2019-03-05T12:20:18.475Z,57.60
2019-03-05T12:22:46.741Z,58.20
2019-03-05T12:25:16.905Z,58.70
2019-03-05T12:27:45.221Z,59.20
2019-03-05T12:30:16.746Z,59.90
2019-03-05T12:32:44.969Z,59.70
2019-03-05T12:35:14.238Z,59.80
2019-03-05T12:37:42.453Z,58.90
2019-03-05T12:40:25.137Z,59.30
2019-03-05T12:42:53.402Z,59.60
2019-03-05T12:45:22.666Z,59.80
2019-03-05T12:47:50.992Z,60.30
2019-03-05T12:50:23.572Z,60.00
2019-03-05T12:52:52.618Z,60.30
2019-03-05T12:55:20.949Z,60.80
2019-03-05T12:57:49.202Z,61.00
2019-03-05T13:00:25.358Z,60.90
2019-03-05T13:02:53.621Z,60.80
2019-03-05T13:05:21.898Z,62.40
2019-03-05T13:07:52.588Z,61.80
2019-03-05T13:10:24.487Z,62.70
2019-03-05T13:12:52.706Z,62.50
2019-03-05T13:15:34.592Z,62.40
2019-03-05T13:18:01.570Z,62.70
2019-03-05T13:20:29.825Z,63.10
2019-03-05T13:22:58.054Z,63.90
2019-03-05T13:25:28.418Z,63.00
2019-03-05T13:27:57.697Z,62.90
2019-03-05T13:30:31.484Z,62.80
2019-03-05T13:33:00.862Z,64.40
2019-03-05T13:35:30.243Z,64.20
2019-03-05T13:38:07.255Z,65.00
2019-03-05T13:40:34.051Z,65.40
2019-03-05T13:43:03.092Z,65.80
2019-03-05T13:45:31.346Z,66.20
2019-03-05T13:48:14.874Z,65.60
2019-03-05T13:51:00.386Z,66.40
2019-03-05T13:54:01.129Z,67.50
2019-03-05T13:56:37.658Z,68.80
2019-03-05T13:59:28.026Z,72.50
2019-03-05T14:01:56.279Z,75.50
2019-03-05T14:04:51.884Z,77.70
2019-03-05T14:07:47.559Z,79.60
2019-03-05T14:10:15.796Z,81.50
2019-03-05T14:12:44.089Z,83.10
2019-03-05T14:15:12.681Z,81.50
2019-03-05T14:17:41.859Z,84.00
2019-03-05T14:20:13.446Z,83.70
2019-03-05T14:22:41.688Z,84.40
2019-03-05T14:25:12.531Z,84.10
2019-03-05T14:27:40.866Z,84.30
2019-03-05T14:30:17.723Z,84.30
2019-03-05T14:32:45.979Z,86.30
2019-03-05T14:35:15.229Z,86.40
2019-03-05T14:37:43.462Z,86.20
2019-03-05T14:40:24.008Z,86.50
2019-03-05T14:42:47.774Z,86.10
2019-03-05T14:45:21.786Z,87.30
2019-03-05T14:47:50.011Z,86.90
2019-03-05T14:50:18.342Z,86.90
2019-03-05T14:52:46.681Z,87.90
2019-03-05T14:55:14.969Z,88.00
2019-03-05T14:57:43.178Z,88.10
2019-03-05T15:00:17.844Z,89.30
2019-03-05T15:02:46.181Z,88.90
2019-03-05T15:05:14.460Z,90.10
2019-03-05T15:07:42.697Z,89.50
2019-03-05T15:10:11.039Z,90.30
2019-03-05T15:12:39.291Z,90.40
2019-03-05T15:15:22.288Z,90.70
2019-03-05T15:17:50.643Z,90.10
2019-03-05T15:20:18.857Z,90.40
2019-03-05T15:22:47.357Z,90.90
2019-03-05T15:25:16.492Z,91.00
2019-03-05T15:27:44.749Z,91.10
2019-03-05T15:30:21.683Z,91.50
2019-03-05T15:32:49.952Z,91.10
2019-03-05T15:35:18.225Z,91.00
2019-03-05T15:37:46.468Z,91.10
2019-03-05T15:40:16.251Z,91.60
2019-03-05T15:42:44.479Z,91.90
2019-03-05T15:45:22.612Z,91.60
2019-03-05T15:47:50.967Z,91.40
2019-03-05T15:50:24.897Z,91.50
2019-03-05T15:52:53.090Z,91.40
2019-03-05T15:55:21.350Z,91.70
2019-03-05T15:57:49.645Z,91.60
2019-03-05T16:00:21.606Z,91.30
2019-03-05T16:02:49.828Z,91.10
2019-03-05T16:05:20.738Z,91.70
2019-03-05T16:07:48.494Z,92.60
2019-03-05T16:10:18.807Z,92.20
2019-03-05T16:12:47.222Z,92.20
2019-03-05T16:15:15.544Z,91.80
2019-03-05T16:17:43.762Z,92.50
2019-03-05T16:20:14.390Z,92.50
2019-03-05T16:22:42.640Z,92.40
2019-03-05T16:25:16.806Z,92.50
2019-03-05T16:27:45.056Z,92.60
2019-03-05T16:30:34.365Z,93.00
2019-03-05T16:33:03.942Z,92.80
2019-03-05T16:38:51.105Z,92.30
2019-03-05T16:41:25.260Z,91.70
2019-03-05T16:44:00.505Z,91.60
2019-03-05T16:46:30.402Z,92.00
2019-03-05T16:49:00.278Z,92.00
2019-03-05T16:51:33.108Z,92.30
2019-03-05T16:54:03.084Z,92.20
2019-03-05T16:56:35.864Z,92.40
2019-03-05T16:59:05.749Z,92.00
2019-03-05T17:01:47.598Z,91.60
2019-03-05T17:04:17.478Z,91.40
2019-03-05T17:06:56.214Z,91.70
2019-03-05T17:09:38.160Z,91.60
2019-03-05T17:12:06.381Z,92.10
2019-03-05T17:14:34.631Z,92.10
2019-03-05T17:17:02.863Z,92.30
2019-03-05T17:19:31.084Z,92.10
2019-03-05T17:21:59.802Z,92.30
2019-03-05T17:24:28.021Z,91.40
2019-03-05T17:26:56.751Z,91.80
2019-03-05T17:29:25.072Z,91.80
2019-03-05T17:31:53.319Z,91.70
2019-03-05T17:34:21.824Z,91.50
2019-03-05T17:36:50.058Z,91.20
2019-03-05T17:39:21.714Z,91.10
2019-03-05T17:41:49.952Z,91.20
2019-03-05T17:44:18.165Z,91.40
2019-03-05T17:46:46.484Z,91.00
2019-03-05T17:49:15.024Z,91.10
2019-03-05T17:51:43.237Z,91.40
2019-03-05T17:54:11.480Z,91.30
2019-03-05T17:56:39.687Z,92.50
2019-03-05T17:59:08.030Z,91.60
2019-03-05T18:01:36.252Z,91.40
2019-03-05T18:04:04.478Z,91.60
2019-03-05T18:06:32.699Z,91.30
2019-03-05T18:09:00.928Z,91.20
2019-03-05T18:11:29.535Z,91.00
2019-03-05T18:13:57.761Z,91.10
2019-03-05T18:16:26.000Z,91.30
2019-03-05T18:18:54.258Z,91.00
2019-03-05T18:21:22.492Z,90.80
2019-03-05T18:23:50.712Z,91.10
2019-03-05T18:26:18.952Z,90.90
2019-03-05T18:28:47.193Z,91.10
2019-03-05T18:31:15.417Z,91.10
2019-03-05T18:33:43.681Z,91.00
2019-03-05T18:36:11.913Z,91.20
2019-03-05T18:38:40.197Z,91.40
2019-03-05T18:41:08.430Z,92.00
2019-03-05T18:43:36.639Z,92.00
2019-03-05T18:46:04.886Z,91.90
2019-03-05T18:48:33.119Z,92.40
2019-03-05T18:51:01.557Z,92.20
2019-03-05T18:53:29.881Z,92.40
2019-03-05T18:55:58.111Z,92.20
2019-03-05T18:58:26.349Z,92.20
2019-03-05T19:00:54.590Z,92.40
2019-03-05T19:03:23.207Z,92.70
2019-03-05T19:05:51.448Z,92.70
2019-03-05T19:08:19.754Z,93.00
2019-03-05T19:10:48.016Z,93.00
2019-03-05T19:13:16.248Z,92.60
2019-03-05T19:15:44.750Z,92.80
2019-03-05T19:18:12.988Z,93.20
2019-03-05T19:20:41.303Z,92.70
2019-03-05T19:23:09.539Z,92.90
2019-03-05T19:25:42.472Z,92.90
2019-03-05T19:28:11.549Z,92.90
2019-03-05T19:30:50.686Z,92.60
2019-03-05T19:33:18.935Z,92.80
2019-03-05T19:35:47.146Z,92.80
2019-03-05T19:38:15.374Z,93.10
2019-03-05T19:40:44.870Z,93.40
2019-03-05T19:43:13.116Z,93.50
2019-03-05T19:45:41.340Z,93.40
2019-03-05T19:48:09.550Z,93.10
2019-03-05T19:50:37.814Z,93.40
2019-03-05T19:53:06.037Z,93.50
2019-03-05T19:55:34.289Z,93.60
2019-03-05T19:58:09.325Z,94.80
2019-03-05T20:00:47.182Z,95.50
2019-03-05T20:03:15.431Z,95.30
2019-03-05T20:05:43.656Z,95.40
2019-03-05T20:08:11.900Z,95.10
2019-03-05T20:10:40.146Z,95.60
2019-03-05T20:13:08.411Z,95.20
2019-03-05T20:15:36.649Z,95.50
2019-03-05T20:18:04.881Z,95.40
2019-03-05T20:20:33.130Z,95.70
2019-03-05T20:23:01.364Z,95.30
2019-03-05T20:25:30.451Z,95.60
2019-03-05T20:27:58.701Z,95.90
2019-03-05T20:30:26.937Z,95.30
2019-03-05T20:32:55.253Z,94.70
2019-03-05T20:35:23.519Z,94.50
2019-03-05T20:37:52.404Z,94.80
2019-03-05T20:40:22.683Z,94.90
2019-03-05T20:42:51.121Z,94.70
2019-03-05T20:45:22.839Z,94.80
2019-03-05T20:47:51.091Z,94.70
2019-03-05T20:50:19.451Z,95.20
2019-03-05T20:52:47.969Z,95.10
2019-03-05T20:55:26.797Z,95.20
2019-03-05T20:57:55.065Z,94.80
2019-03-05T21:00:34.293Z,95.30
2019-03-05T21:03:07.586Z,95.40
2019-03-05T21:05:38.168Z,94.80
2019-03-05T21:08:06.513Z,94.90
2019-03-05T21:10:34.779Z,94.70
2019-03-05T21:13:03.056Z,94.70
2019-03-05T21:15:32.843Z,94.90
2019-03-05T21:18:02.383Z,94.60
2019-03-05T21:20:30.953Z,94.70
2019-03-05T21:22:59.241Z,94.60
2019-03-05T21:25:27.653Z,94.80
2019-03-05T21:27:55.923Z,94.00
2019-03-05T21:30:27.980Z,94.00
2019-03-05T21:32:56.334Z,94.10
2019-03-05T21:35:24.616Z,94.10
2019-03-05T21:37:53.183Z,94.30
2019-03-05T21:40:29.031Z,94.10
2019-03-05T21:42:57.345Z,94.40
2019-03-05T21:45:39.889Z,94.40
2019-03-05T21:48:08.229Z,94.40
2019-03-05T21:50:36.452Z,94.40
2019-03-05T21:53:05.003Z,94.30
2019-03-05T21:55:33.285Z,94.50
2019-03-05T21:58:01.520Z,94.40
2019-03-05T22:00:35.049Z,94.50
2019-03-05T22:03:03.359Z,94.60
2019-03-05T22:05:31.596Z,94.60
2019-03-05T22:07:59.830Z,94.40
2019-03-05T22:10:28.253Z,94.40
2019-03-05T22:12:56.551Z,94.40
2019-03-05T22:15:31.094Z,94.30
2019-03-05T22:17:59.332Z,94.40
2019-03-05T22:20:27.659Z,94.50
2019-03-05T22:22:55.912Z,94.60
2019-03-05T22:25:25.003Z,94.60
2019-03-05T22:27:53.297Z,94.60
2019-03-05T22:30:29.344Z,94.70
2019-03-05T22:32:57.564Z,94.80
2019-03-05T22:35:26.105Z,94.70
2019-03-05T22:37:54.329Z,95.10
2019-03-05T22:40:27.324Z,95.00
2019-03-05T22:42:55.597Z,94.70
2019-03-05T22:45:31.196Z,94.60
2019-03-05T22:47:59.423Z,94.60
2019-03-05T22:50:27.658Z,94.70
2019-03-05T22:52:55.913Z,94.50
2019-03-05T22:55:24.281Z,94.40
2019-03-05T22:57:52.515Z,94.20
2019-03-05T23:00:25.678Z,94.10
2019-03-05T23:02:54.198Z,94.10
2019-03-05T23:05:22.495Z,94.20
2019-03-05T23:07:50.716Z,94.10
2019-03-05T23:10:19.427Z,94.40
2019-03-05T23:12:47.638Z,94.20
2019-03-05T23:15:16.624Z,94.20
2019-03-05T23:17:45.451Z,94.20
2019-03-05T23:20:15.684Z,94.10
2019-03-05T23:22:44.349Z,94.20
2019-03-05T23:25:17.468Z,94.10
2019-03-05T23:27:45.708Z,94.20
2019-03-05T23:30:17.869Z,94.40
2019-03-05T23:32:51.182Z,94.50
2019-03-05T23:35:19.410Z,94.60
2019-03-05T23:37:48.609Z,94.40
2019-03-05T23:40:16.897Z,94.40
2019-03-05T23:42:45.141Z,94.30
2019-03-05T23:45:15.570Z,94.20
2019-03-05T23:47:43.808Z,94.10
2019-03-05T23:50:14.744Z,94.20
2019-03-05T23:52:43.066Z,94.40
2019-03-05T23:55:11.857Z,94.40
2019-03-05T23:57:40.956Z,94.50
